createdAt,value
2022-11-01T00:03:13.685Z,1.15
2022-11-01T00:06:55.721Z,1.25
2022-11-01T00:10:39.277Z,1.60
2022-11-01T00:14:31.270Z,1.20
2022-11-01T00:18:13.644Z,1.08
2022-11-01T00:21:55.659Z,0.82
2022-11-01T00:25:38.279Z,1.10
2022-11-01T00:29:20.135Z,0.93
2022-11-01T00:33:02.263Z,0.57
2022-11-01T00:36:44.144Z,0.43
2022-11-01T00:40:26.523Z,1.00
2022-11-01T00:44:08.385Z,1.27
2022-11-01T00:47:50.182Z,0.63
2022-11-01T04:48:20.569Z,2.08
2022-11-01T04:52:02.386Z,3.08
2022-11-01T04:55:44.378Z,2.67
2022-11-01T04:59:26.250Z,1.65
2022-11-01T05:03:10.959Z,3.35
2022-11-01T05:06:52.820Z,2.25
2022-11-01T05:10:36.273Z,4.25
2022-11-01T05:14:18.459Z,3.17
2022-11-01T05:18:01.890Z,2.78
2022-11-01T05:21:43.937Z,3.05
2022-11-01T05:25:26.109Z,4.30
2022-11-01T05:29:08.999Z,3.28
2022-11-01T05:33:02.578Z,3.47
2022-11-01T05:36:44.647Z,3.85
2022-11-01T05:40:26.871Z,3.63
2022-11-01T05:44:21.218Z,4.32
2022-11-01T05:48:04.447Z,2.75
2022-11-01T05:51:49.055Z,3.60
2022-11-01T05:55:30.889Z,3.30
2022-11-01T05:59:28.303Z,3.67
2022-11-01T06:03:10.131Z,3.55
2022-11-01T06:06:52.097Z,3.13
2022-11-01T06:10:34.361Z,3.20
2022-11-01T06:14:18.460Z,2.78
2022-11-01T06:18:03.181Z,1.30
2022-11-01T06:21:45.799Z,1.00
2022-11-01T06:25:28.838Z,1.55
2022-11-01T06:29:17.212Z,1.00
2022-11-01T06:33:01.548Z,1.50
2022-11-01T06:36:43.802Z,1.60
2022-11-01T06:40:25.598Z,2.15
2022-11-01T06:44:08.174Z,1.55
2022-11-01T06:47:53.852Z,3.13
